createdAt,value
2022-08-01T00:00:48.590Z,52.43
2022-08-01T00:03:15.576Z,52.21
2022-08-01T00:05:44.395Z,52.00
2022-08-01T00:08:11.346Z,52.36
2022-08-01T00:10:38.369Z,52.53
2022-08-01T00:13:05.259Z,52.54
2022-08-01T00:15:33.361Z,52.36
2022-08-01T00:18:00.438Z,52.38
2022-08-01T00:20:27.899Z,52.65
2022-08-01T00:22:54.866Z,52.83
2022-08-01T00:25:21.810Z,52.84
2022-08-01T00:28:01.021Z,52.63
2022-08-01T00:30:27.926Z,52.63
2022-08-01T00:32:54.822Z,52.95
2022-08-01T00:35:21.747Z,53.15
2022-08-01T00:37:48.694Z,52.71
2022-08-01T00:40:15.787Z,52.77
2022-08-01T00:42:43.862Z,52.94
2022-08-01T00:45:12.639Z,52.99
2022-08-01T00:47:40.412Z,52.96
2022-08-01T00:50:08.922Z,53.40
2022-08-01T00:52:36.737Z,53.20
2022-08-01T00:55:04.417Z,53.53
2022-08-01T00:58:04.905Z,53.63
2022-08-01T01:00:19.187Z,53.77
2022-08-01T01:02:54.612Z,53.77
2022-08-01T01:05:21.770Z,54.20
2022-08-01T01:08:00.675Z,54.53
2022-08-01T01:10:43.794Z,54.46
2022-08-01T01:13:23.070Z,54.57
2022-08-01T01:16:05.398Z,54.69
2022-08-01T01:18:46.158Z,54.78
2022-08-01T01:21:19.040Z,54.85
2022-08-01T01:24:35.204Z,55.17
2022-08-01T01:27:49.209Z,55.47
2022-08-01T01:30:16.797Z,56.00
2022-08-01T01:32:51.741Z,56.09
2022-08-01T01:35:28.402Z,56.53
2022-08-01T01:38:08.565Z,56.38
2022-08-01T01:40:37.852Z,56.99
2022-08-01T01:43:10.624Z,57.39
2022-08-01T01:45:38.274Z,58.10
2022-08-01T01:48:08.574Z,58.14
2022-08-01T01:50:39.759Z,58.40
2022-08-01T01:53:15.063Z,58.54
2022-08-01T01:55:49.522Z,58.87
2022-08-01T01:58:19.179Z,59.20
2022-08-01T02:00:48.733Z,59.25
2022-08-01T02:03:20.750Z,59.18
2022-08-01T02:05:49.471Z,59.03
2022-08-01T02:08:18.273Z,58.79
2022-08-01T02:11:07.335Z,58.69
2022-08-01T02:13:38.042Z,58.98
2022-08-01T02:16:06.740Z,59.36
2022-08-01T02:18:34.423Z,59.25
2022-08-01T02:21:06.467Z,59.40
2022-08-01T02:23:37.028Z,59.60
2022-08-01T02:26:14.517Z,59.56
2022-08-01T02:29:11.492Z,59.52
2022-08-01T02:31:45.861Z,59.56
2022-08-01T02:34:19.240Z,59.80
2022-08-01T02:36:49.351Z,59.67
2022-08-01T02:39:20.004Z,60.02
2022-08-01T02:41:53.601Z,60.23
2022-08-01T02:44:31.155Z,60.44
2022-08-01T02:47:03.441Z,60.45
2022-08-01T02:49:40.050Z,60.70
2022-08-01T02:52:13.738Z,60.63
2022-08-01T02:54:44.650Z,60.74
2022-08-01T02:57:14.197Z,60.82
2022-08-01T02:59:46.134Z,60.94
2022-08-01T03:02:15.573Z,61.24
2022-08-01T03:04:44.031Z,61.34
2022-08-01T03:07:14.091Z,61.71
2022-08-01T03:09:46.850Z,61.54
2022-08-01T03:12:18.178Z,61.39
2022-08-01T03:14:48.826Z,61.42
2022-08-01T03:17:21.984Z,61.78
2022-08-01T03:19:50.986Z,61.99
2022-08-01T03:22:20.554Z,62.33
2022-08-01T03:24:52.973Z,62.55
2022-08-01T03:27:25.337Z,61.93
2022-08-01T03:29:56.507Z,62.22
2022-08-01T03:32:26.774Z,62.24
2022-08-01T03:34:53.770Z,62.69
2022-08-01T03:37:59.938Z,62.80
2022-08-01T03:40:51.765Z,63.13
2022-08-01T03:43:33.597Z,63.68
2022-08-01T03:46:09.018Z,64.19
2022-08-01T03:48:41.684Z,64.28
2022-08-01T03:51:10.744Z,64.58
2022-08-01T03:53:42.340Z,64.76
2022-08-01T03:56:11.260Z,64.73
2022-08-01T03:58:41.314Z,65.01
2022-08-01T04:01:15.495Z,65.00
2022-08-01T04:03:44.990Z,64.98
2022-08-01T04:06:12.036Z,65.44
2022-08-01T04:08:41.183Z,65.50
2022-08-01T04:11:10.801Z,65.51
2022-08-01T04:13:38.476Z,65.90
2022-08-01T04:16:06.005Z,66.42
2022-08-01T04:18:33.267Z,66.64
2022-08-01T04:21:00.504Z,66.95
2022-08-01T04:23:32.830Z,67.12
2022-08-01T04:26:05.075Z,67.16
2022-08-01T04:28:36.878Z,67.06
2022-08-01T04:31:10.559Z,66.94
2022-08-01T04:33:44.551Z,66.94
2022-08-01T04:36:13.482Z,67.35
2022-08-01T04:38:43.143Z,67.57
2022-08-01T04:41:13.975Z,67.54
2022-08-01T04:43:44.144Z,67.26
2022-08-01T04:46:12.985Z,67.56
2022-08-01T04:48:41.155Z,67.28
2022-08-01T04:51:16.432Z,67.94
2022-08-01T04:53:49.466Z,67.09
2022-08-01T04:56:16.388Z,66.57
2022-08-01T04:58:44.553Z,66.07
2022-08-01T05:01:12.147Z,65.75
2022-08-01T05:03:39.408Z,65.86
2022-08-01T05:06:06.956Z,66.17
2022-08-01T05:08:33.920Z,66.43
2022-08-01T05:11:02.212Z,66.48
2022-08-01T05:13:29.424Z,66.32
2022-08-01T05:15:56.515Z,66.54
2022-08-01T05:18:28.046Z,66.32
2022-08-01T05:20:56.100Z,66.32
2022-08-01T05:23:33.451Z,65.83
2022-08-01T05:26:11.485Z,65.80
2022-08-01T05:28:42.451Z,65.57
2022-08-01T05:31:09.385Z,66.23
2022-08-01T05:33:36.807Z,66.61
2022-08-01T05:36:04.037Z,66.82
2022-08-01T05:38:31.546Z,66.57
2022-08-01T05:40:58.456Z,66.27
2022-08-01T05:43:28.755Z,66.13
2022-08-01T05:45:56.521Z,66.38
2022-08-01T05:48:24.481Z,66.09
2022-08-01T05:50:58.000Z,66.10
2022-08-01T05:53:25.778Z,66.12
2022-08-01T05:55:52.604Z,66.30
2022-08-01T05:58:19.470Z,66.25
2022-08-01T06:00:46.296Z,65.74
2022-08-01T06:03:13.250Z,65.53
2022-08-01T06:05:40.100Z,65.45
2022-08-01T06:08:07.211Z,65.07
2022-08-01T06:10:34.026Z,64.76
2022-08-01T06:13:03.871Z,64.27
2022-08-01T06:15:32.589Z,63.85
2022-08-01T06:18:00.743Z,63.45
2022-08-01T06:20:27.882Z,63.02
2022-08-01T06:22:55.449Z,62.70
2022-08-01T06:25:23.506Z,62.71
2022-08-01T06:27:50.723Z,62.19
2022-08-01T06:30:17.977Z,62.70
2022-08-01T06:32:44.918Z,62.60
2022-08-01T06:35:12.088Z,62.51
2022-08-01T06:37:39.271Z,62.52
2022-08-01T06:40:13.412Z,61.89
2022-08-01T06:42:43.627Z,61.31
2022-08-01T06:45:12.056Z,61.34
2022-08-01T06:47:40.731Z,60.88
2022-08-01T06:50:13.091Z,60.73
2022-08-01T06:52:39.969Z,60.31
2022-08-01T06:55:07.858Z,60.04
2022-08-01T06:57:35.305Z,59.65
2022-08-01T07:00:12.624Z,59.33
2022-08-01T07:02:39.553Z,59.47
2022-08-01T07:05:06.844Z,59.58
2022-08-01T07:07:33.653Z,59.04
2022-08-01T07:10:00.475Z,59.08
2022-08-01T07:12:27.473Z,58.85
2022-08-01T07:14:54.443Z,59.07
2022-08-01T07:17:21.927Z,59.03
2022-08-01T07:19:49.515Z,59.31
2022-08-01T07:22:23.235Z,58.83
2022-08-01T07:24:54.556Z,58.83
2022-08-01T07:27:25.786Z,57.98
2022-08-01T07:29:53.663Z,57.73
2022-08-01T07:32:21.021Z,57.13
2022-08-01T07:34:47.950Z,57.45
2022-08-01T07:37:14.969Z,57.39
2022-08-01T07:39:41.967Z,57.53
2022-08-01T07:42:09.313Z,56.62
2022-08-01T07:44:37.954Z,56.15
2022-08-01T07:47:06.199Z,55.49
2022-08-01T07:49:39.158Z,55.34
2022-08-01T07:52:07.271Z,55.49
2022-08-01T07:54:35.191Z,55.50
2022-08-01T07:57:03.893Z,55.05
2022-08-01T07:59:31.154Z,55.41
2022-08-01T08:01:58.591Z,55.48
2022-08-01T08:04:26.827Z,56.05
2022-08-01T08:06:54.489Z,56.04
2022-08-01T08:09:21.431Z,56.13
2022-08-01T08:11:48.588Z,55.67
2022-08-01T08:14:19.972Z,55.17
2022-08-01T08:16:47.113Z,54.33
2022-08-01T08:19:14.302Z,55.83
2022-08-01T08:21:41.328Z,54.77
2022-08-01T08:24:26.716Z,55.19
2022-08-01T08:27:01.985Z,54.09
2022-08-01T08:29:33.254Z,52.97
2022-08-01T08:32:01.727Z,51.84
2022-08-01T08:34:29.920Z,52.65
2022-08-01T08:36:58.920Z,53.15
2022-08-01T08:39:27.105Z,52.33
2022-08-01T08:41:54.686Z,52.50
2022-08-01T08:44:26.675Z,51.93
2022-08-01T08:47:00.258Z,51.88
2022-08-01T08:49:35.943Z,51.12
2022-08-01T08:52:06.085Z,51.78
2022-08-01T08:54:37.915Z,51.43
2022-08-01T08:57:05.893Z,51.18
2022-08-01T08:59:33.037Z,50.44
2022-08-01T09:02:23.593Z,49.93
2022-08-01T09:04:54.396Z,49.49
2022-08-01T09:07:21.674Z,49.67
2022-08-01T09:09:50.062Z,48.95
2022-08-01T09:12:21.622Z,47.81
2022-08-01T09:14:51.249Z,46.62
2022-08-01T09:17:18.760Z,47.45
2022-08-01T09:19:52.595Z,48.03
2022-08-01T09:22:25.846Z,47.74
2022-08-01T09:25:10.031Z,47.68
2022-08-01T09:27:44.036Z,48.56
2022-08-01T09:30:23.383Z,49.73
2022-08-01T09:32:59.306Z,49.46
2022-08-01T09:35:36.457Z,48.91
2022-08-01T09:38:21.445Z,48.13
2022-08-01T09:41:01.829Z,47.10
2022-08-01T09:43:32.223Z,45.73
2022-08-01T09:46:05.409Z,45.24
2022-08-01T09:48:33.642Z,45.33
2022-08-01T09:51:07.467Z,45.91
2022-08-01T09:54:09.664Z,46.11
2022-08-01T09:56:43.699Z,46.82
2022-08-01T09:59:11.528Z,46.50
2022-08-01T10:01:50.905Z,45.11
2022-08-01T10:04:21.954Z,43.55
2022-08-01T10:06:55.430Z,44.44
2022-08-01T10:09:39.663Z,45.37
2022-08-01T10:12:16.242Z,46.24
2022-08-01T10:14:46.914Z,46.05
2022-08-01T10:17:20.720Z,46.04
2022-08-01T10:19:51.551Z,46.37
2022-08-01T10:22:24.363Z,47.02
2022-08-01T10:24:56.317Z,46.86
2022-08-01T10:27:39.432Z,44.64
2022-08-01T10:30:19.983Z,43.31
2022-08-01T10:32:57.309Z,43.58
2022-08-01T10:35:46.858Z,44.05
2022-08-01T10:38:13.587Z,44.98
2022-08-01T10:40:43.299Z,43.93
2022-08-01T10:43:21.336Z,43.00
2022-08-01T10:45:51.424Z,42.43
2022-08-01T10:48:52.119Z,39.75
2022-08-01T10:51:51.391Z,39.23
2022-08-01T10:54:13.625Z,38.05
2022-08-01T10:56:52.673Z,38.86
2022-08-01T10:59:49.379Z,38.78
2022-08-01T11:03:05.196Z,40.27
2022-08-01T11:06:08.283Z,39.41
2022-08-01T11:08:38.923Z,39.97
2022-08-01T11:11:08.964Z,42.08
2022-08-01T11:14:10.674Z,43.32
2022-08-01T11:16:41.726Z,43.55
2022-08-01T11:19:09.493Z,43.83
2022-08-01T11:21:56.932Z,44.30
2022-08-01T11:24:52.630Z,42.01
2022-08-01T11:27:33.563Z,39.79
2022-08-01T11:30:13.143Z,38.48
2022-08-01T11:33:10.307Z,37.85
2022-08-01T11:35:59.208Z,39.06
2022-08-01T11:38:30.941Z,38.11
2022-08-01T11:41:18.198Z,36.37
2022-08-01T11:44:10.122Z,35.86
2022-08-01T11:47:13.527Z,37.15
2022-08-01T11:49:55.872Z,35.47
2022-08-01T11:52:35.187Z,34.73
2022-08-01T11:55:10.505Z,33.83
2022-08-01T11:57:43.726Z,33.43
2022-08-01T12:00:20.476Z,32.93
2022-08-01T12:03:09.713Z,32.22
2022-08-01T12:05:43.247Z,31.72
2022-08-01T12:08:11.198Z,31.39
2022-08-01T12:10:47.164Z,31.18
2022-08-01T12:13:19.065Z,30.10
2022-08-01T12:15:56.217Z,32.20
2022-08-01T12:18:26.538Z,32.36
2022-08-01T12:21:06.907Z,31.69
2022-08-01T12:23:41.100Z,34.21
2022-08-01T12:26:32.474Z,32.12
2022-08-01T12:28:59.366Z,32.74
2022-08-01T12:31:34.738Z,34.78
2022-08-01T12:34:31.269Z,36.22
2022-08-01T12:37:03.765Z,36.22
2022-08-01T12:39:34.916Z,33.55
2022-08-01T12:42:06.179Z,31.17
2022-08-01T12:44:34.372Z,30.28
2022-08-01T12:47:04.033Z,29.22
2022-08-01T12:49:37.531Z,28.24
2022-08-01T12:52:12.868Z,27.57
2022-08-01T12:55:09.849Z,28.26
2022-08-01T12:57:45.727Z,28.47
2022-08-01T13:00:22.365Z,28.78
2022-08-01T13:03:10.094Z,29.36
2022-08-01T13:05:59.753Z,29.40
2022-08-01T13:08:34.117Z,32.02
2022-08-01T13:11:06.070Z,33.51
2022-08-01T13:13:44.327Z,34.42
2022-08-01T13:16:30.934Z,34.61
2022-08-01T13:19:11.579Z,35.13
2022-08-01T13:21:53.736Z,35.11
2022-08-01T13:24:32.165Z,33.66
2022-08-01T13:27:06.243Z,32.99
2022-08-01T13:29:44.354Z,33.25
2022-08-01T13:32:29.924Z,33.13
2022-08-01T13:35:10.725Z,32.99
2022-08-01T13:37:49.454Z,32.22
2022-08-01T13:40:30.490Z,32.91
2022-08-01T13:42:58.131Z,33.43
2022-08-01T13:45:26.411Z,31.47
2022-08-01T13:48:03.260Z,30.44
2022-08-01T13:50:39.520Z,30.87
2022-08-01T13:53:06.310Z,30.22
2022-08-01T13:55:35.325Z,30.44
2022-08-01T13:58:03.796Z,31.45
2022-08-01T14:00:31.206Z,30.40
2022-08-01T14:02:58.032Z,30.00
2022-08-01T14:05:24.910Z,29.53
2022-08-01T14:07:56.540Z,29.59
2022-08-01T14:10:24.950Z,31.19
2022-08-01T14:12:51.749Z,31.96
2022-08-01T14:15:38.189Z,32.63
2022-08-01T14:18:10.108Z,32.87
2022-08-01T14:20:39.390Z,32.01
2022-08-01T14:23:08.911Z,32.01
2022-08-01T14:26:02.736Z,32.12
2022-08-01T14:28:30.977Z,32.37
2022-08-01T14:30:59.245Z,32.58
2022-08-01T14:33:27.431Z,32.92
2022-08-01T14:36:06.680Z,32.50
2022-08-01T14:38:46.521Z,31.11
2022-08-01T14:41:17.707Z,31.10
2022-08-01T14:43:49.797Z,31.47
2022-08-01T14:46:17.480Z,31.74
2022-08-01T14:48:47.126Z,31.90
2022-08-01T14:51:14.407Z,32.20
2022-08-01T14:53:50.691Z,32.04
2022-08-01T14:56:18.574Z,33.82
2022-08-01T14:58:46.232Z,33.75
2022-08-01T15:01:19.733Z,34.63
2022-08-01T15:03:49.017Z,35.32
2022-08-01T15:06:16.911Z,35.72
2022-08-01T15:08:44.758Z,35.21
2022-08-01T15:11:12.760Z,35.57
2022-08-01T15:13:42.624Z,35.65
2022-08-01T15:16:10.196Z,36.05
2022-08-01T15:18:39.565Z,36.01
2022-08-01T15:21:06.932Z,36.41
2022-08-01T15:23:34.825Z,36.50
2022-08-01T15:26:01.716Z,36.69
2022-08-01T15:28:28.678Z,37.04
2022-08-01T15:30:55.845Z,36.98
2022-08-01T15:33:22.868Z,37.01
2022-08-01T15:35:53.430Z,37.44
2022-08-01T15:38:20.515Z,37.91
2022-08-01T15:40:47.329Z,37.89
2022-08-01T15:43:15.883Z,37.72
2022-08-01T15:45:47.716Z,37.82
2022-08-01T15:48:16.751Z,37.30
2022-08-01T15:50:44.058Z,36.93
2022-08-01T15:53:11.385Z,36.99
2022-08-01T15:55:39.766Z,37.16
2022-08-01T15:58:08.213Z,36.92
2022-08-01T16:00:39.158Z,36.70
2022-08-01T16:03:10.119Z,36.78
2022-08-01T16:05:42.851Z,37.15
2022-08-01T16:08:14.113Z,37.40
2022-08-01T16:10:41.487Z,38.03
2022-08-01T16:13:09.338Z,38.36
2022-08-01T16:15:37.862Z,38.17
2022-08-01T16:18:12.523Z,38.78
2022-08-01T16:20:45.124Z,39.02
2022-08-01T16:23:15.243Z,39.04
2022-08-01T16:25:42.394Z,39.19
2022-08-01T16:28:09.904Z,40.04
2022-08-01T16:30:47.831Z,40.05
2022-08-01T16:33:41.584Z,40.14
2022-08-01T16:36:09.387Z,40.60
2022-08-01T16:38:45.042Z,41.17
2022-08-01T16:41:19.410Z,41.82
2022-08-01T16:43:53.405Z,41.21
2022-08-01T16:46:25.509Z,41.89
2022-08-01T16:48:53.979Z,41.44
2022-08-01T16:51:21.001Z,42.95
2022-08-01T16:53:48.215Z,43.31
2022-08-01T16:56:15.043Z,44.03
2022-08-01T16:58:41.916Z,43.07
2022-08-01T17:01:58.316Z,45.54
2022-08-01T17:04:00.912Z,44.50
2022-08-01T17:06:31.561Z,44.19
2022-08-01T17:09:03.520Z,45.50
2022-08-01T17:11:31.465Z,44.69
2022-08-01T17:14:00.758Z,43.74
2022-08-01T17:16:27.657Z,45.96
2022-08-01T17:18:54.511Z,44.65
2022-08-01T17:21:21.511Z,45.50
2022-08-01T17:23:48.786Z,45.69
2022-08-01T17:26:15.821Z,45.41
2022-08-01T17:28:43.570Z,45.39
2022-08-01T17:31:10.873Z,45.04
2022-08-01T17:33:45.490Z,46.70
2022-08-01T17:36:14.040Z,46.14
2022-08-01T17:38:40.985Z,46.67
2022-08-01T17:41:08.937Z,46.14
2022-08-01T17:43:37.283Z,46.20
2022-08-01T17:46:04.148Z,45.84
2022-08-01T17:48:31.026Z,46.64
2022-08-01T17:50:57.906Z,45.80
2022-08-01T17:53:24.808Z,45.41
2022-08-01T17:55:53.252Z,45.33
2022-08-01T17:58:33.029Z,45.41
2022-08-01T18:01:17.303Z,46.72
2022-08-01T18:03:45.956Z,46.67
2022-08-01T18:06:19.237Z,46.32
2022-08-01T18:08:47.959Z,46.04
2022-08-01T18:11:17.109Z,46.28
2022-08-01T18:13:44.719Z,46.76
2022-08-01T18:16:13.200Z,46.74
2022-08-01T18:18:42.244Z,46.90
2022-08-01T18:21:11.770Z,47.42
2022-08-01T18:23:38.608Z,46.48
2022-08-01T18:26:09.043Z,46.55
2022-08-01T18:28:46.316Z,46.68
2022-08-01T18:31:17.275Z,46.09
2022-08-01T18:33:44.834Z,46.36
2022-08-01T18:36:25.486Z,46.53
2022-08-01T18:39:00.254Z,46.63
2022-08-01T18:41:27.243Z,46.48
2022-08-01T18:44:03.924Z,46.62
2022-08-01T18:46:39.600Z,47.08
2022-08-01T18:49:11.100Z,47.27
2022-08-01T18:51:43.733Z,47.22
2022-08-01T18:54:14.026Z,47.35
2022-08-01T18:56:45.510Z,46.99
2022-08-01T18:59:15.910Z,46.87
2022-08-01T19:01:43.735Z,47.37
2022-08-01T19:04:11.711Z,46.76
2022-08-01T19:06:39.068Z,47.02
2022-08-01T19:09:07.917Z,46.78
2022-08-01T19:11:36.716Z,46.69
2022-08-01T19:14:04.223Z,46.81
2022-08-01T19:16:31.563Z,46.53
2022-08-01T19:18:58.548Z,46.97
2022-08-01T19:21:25.708Z,47.23
2022-08-01T19:24:11.215Z,46.75
2022-08-01T19:26:40.385Z,46.98
2022-08-01T19:29:19.066Z,46.48
2022-08-01T19:31:49.204Z,46.72
2022-08-01T19:34:20.130Z,47.06
2022-08-01T19:36:57.069Z,46.64
2022-08-01T19:39:29.666Z,47.00
2022-08-01T19:41:59.312Z,47.39
2022-08-01T19:44:28.854Z,47.73
2022-08-01T19:46:55.967Z,47.63
2022-08-01T19:49:23.948Z,47.77
2022-08-01T19:52:03.890Z,47.93
2022-08-01T19:54:38.478Z,48.12
2022-08-01T19:57:08.155Z,48.05
2022-08-01T19:59:36.850Z,48.23
2022-08-01T20:02:05.226Z,47.94
2022-08-01T20:04:33.835Z,47.89
2022-08-01T20:07:02.927Z,48.01
2022-08-01T20:09:31.462Z,48.36
2022-08-01T20:11:58.386Z,48.66
2022-08-01T20:14:27.011Z,48.57
2022-08-01T20:16:58.501Z,48.77
2022-08-01T20:19:27.571Z,48.80
2022-08-01T20:22:04.651Z,49.17
2022-08-01T20:24:43.606Z,49.40
2022-08-01T20:27:13.939Z,49.78
2022-08-01T20:29:44.143Z,50.00
2022-08-01T20:32:11.949Z,49.95
2022-08-01T20:34:39.730Z,49.92
2022-08-01T20:37:09.467Z,50.30
2022-08-01T20:39:45.202Z,49.69
2022-08-01T20:42:14.707Z,49.86
2022-08-01T20:44:43.354Z,49.69
2022-08-01T20:47:10.700Z,49.67
2022-08-01T20:49:38.066Z,49.88
2022-08-01T20:52:11.829Z,50.30
2022-08-01T20:54:43.111Z,50.14
2022-08-01T20:57:26.281Z,50.13
2022-08-01T21:00:05.667Z,50.12
2022-08-01T21:02:51.366Z,50.25
2022-08-01T21:05:55.757Z,50.65
2022-08-01T21:08:58.678Z,50.65
2022-08-01T21:11:32.936Z,50.73
2022-08-01T21:14:06.076Z,50.65
2022-08-01T21:16:40.697Z,50.97
2022-08-01T21:19:27.827Z,50.81
2022-08-01T21:22:14.531Z,50.98
2022-08-01T21:25:08.311Z,51.02
2022-08-01T21:27:39.540Z,50.98
2022-08-01T21:30:10.673Z,50.71
2022-08-01T21:32:42.421Z,50.79
2022-08-01T21:35:16.282Z,51.30
2022-08-01T21:37:51.891Z,51.41
2022-08-01T21:40:22.815Z,51.57
2022-08-01T21:42:52.930Z,51.75
2022-08-01T21:45:23.355Z,51.61
2022-08-01T21:47:51.620Z,51.92
2022-08-01T21:50:27.302Z,51.85
2022-08-01T21:53:30.549Z,52.02
2022-08-01T21:56:14.981Z,52.38
2022-08-01T21:59:05.334Z,52.34
2022-08-01T22:02:02.035Z,52.92
2022-08-01T22:05:01.555Z,53.09
2022-08-01T22:07:36.827Z,53.67
2022-08-01T22:10:06.759Z,53.78
2022-08-01T22:12:36.061Z,54.16
2022-08-01T22:15:06.920Z,54.69
2022-08-01T22:17:34.765Z,55.23
2022-08-01T22:20:04.292Z,55.62
2022-08-01T22:22:51.248Z,55.61
2022-08-01T22:25:54.211Z,56.15
2022-08-01T22:28:25.043Z,56.43
2022-08-01T22:31:07.423Z,56.81
2022-08-01T22:33:39.171Z,56.77
2022-08-01T22:36:08.913Z,56.64
2022-08-01T22:38:39.906Z,56.88
2022-08-01T22:41:15.523Z,56.86
2022-08-01T22:44:13.896Z,57.28
2022-08-01T22:47:01.640Z,58.20
2022-08-01T22:50:02.076Z,58.46
2022-08-01T22:52:35.354Z,58.11
2022-08-01T22:55:12.964Z,58.49
2022-08-01T22:58:03.545Z,58.81
2022-08-01T23:00:35.258Z,58.93
2022-08-01T23:03:14.653Z,59.52
2022-08-01T23:06:34.546Z,59.28
2022-08-01T23:09:03.636Z,59.90
2022-08-01T23:11:34.166Z,60.58
2022-08-01T23:16:31.330Z,60.66
2022-08-01T23:18:59.784Z,60.60
2022-08-01T23:21:32.350Z,60.67
2022-08-01T23:24:02.073Z,61.58
2022-08-01T23:26:32.074Z,61.98
2022-08-01T23:28:59.483Z,62.19
2022-08-01T23:32:00.431Z,62.18
2022-08-01T23:34:19.809Z,62.58
2022-08-01T23:36:47.331Z,62.57
2022-08-01T23:39:14.185Z,63.05
2022-08-01T23:41:58.603Z,63.59
2022-08-01T23:44:28.950Z,63.25
2022-08-01T23:46:55.922Z,63.01
2022-08-01T23:49:23.141Z,62.71
2022-08-01T23:51:50.508Z,63.21
2022-08-01T23:54:17.766Z,62.92
2022-08-01T23:56:44.634Z,63.51
2022-08-01T23:59:15.137Z,63.82
